Commodore Clipper — C6QQ3 — position and weather

sailwx.info

Track history (hours):
 
Tides and Currents Weather Stations Pressure Air Temp Water Temp Dewpoint Dewpoint Depression Visibility Wind Speed Wind Dir Waves Ship Positions

Commodore Clipper

Operator: Condor Marine Services

Last reported at 2018-Feb-22 10:30 UTC. Time now 2018-Feb-22 10:38 UTC.
Position N 50°33' W 001°08'.

Length 130 m; draft 5.2 m.

Type: Ship. MMSI: 308094000.

Date/timePositionNaut miles runAvg speedWind from/ knotsBaromVisibWave heightAir tempDewpointWater temp
2018-Feb-22 10:30N 50°33' W 001°08'815.6
2018-Feb-22 10:01N 50°40' W 001°01'714.6
2018-Feb-22 09:31N 50°46' W 001°06'2 4.5
2018-Feb-22 09:00N 50°49' W 001°06'0 0.0
2018-Feb-22 08:30N 50°49' W 001°06'0 0.0
2018-Feb-22 08:01N 50°49' W 001°06'0 0.0
2018-Feb-22 07:30N 50°49' W 001°06'0 0.0
2018-Feb-22 07:01N 50°49' W 001°06'0 0.0
2018-Feb-22 06:30N 50°49' W 001°06'1 2.1
2018-Feb-22 06:01N 50°48' W 001°07'612.2
2018-Feb-22 05:31N 50°42' W 001°03'713.0
2018-Feb-22 05:00N 50°36' W 001°08'612.0
2018-Feb-22 04:30N 50°31' W 001°13'6 9.8
2018-Feb-22 03:55N 50°27' W 001°19'1110.1
2018-Feb-22 02:48N 50°18' W 001°30'310.6
2018-Feb-22 02:30N 50°16' W 001°33'611.3
2018-Feb-22 02:00N 50°12' W 001°39'712.7
2018-Feb-22 01:29N 50°07' W 001°47'612.9
2018-Feb-22 01:00N 50°03' W 001°54'612.7
2018-Feb-22 00:31N 49°58' W 001°59'917.5
2018-Feb-22 00:01N 49°49' W 002°00'1020.0
2018-Feb-21 23:31N 49°40' W 002°06'918.9
2018-Feb-21 23:00N 49°31' W 002°11'918.8
2018-Feb-21 22:30N 49°22' W 002°17'7 1.7
2018-Feb-21 18:11N 49°16' W 002°22'418.1
2018-Feb-21 17:57N 49°19' W 002°25'817.6
2018-Feb-21 17:31N 49°27' W 002°30'2 3.2
2018-Feb-21 17:00N 49°27' W 002°32'0 0.0
2018-Feb-21 16:31N 49°27' W 002°32'0 0.3
2018-Feb-21 16:01N 49°27' W 002°32'713.5
2018-Feb-21 15:31N 49°28' W 002°21'918.9
2018-Feb-21 15:00N 49°34' W 002°10'1019.3
2018-Feb-21 14:30N 49°43' W 002°03'917.9
2018-Feb-21 14:01N 49°49' W 001°53'816.2
2018-Feb-21 13:30N 49°54' W 001°43'815.8
2018-Feb-21 13:00N 49°59' W 001°34'815.4
2018-Feb-21 12:30N 50°05' W 001°28'815.5
2018-Feb-21 12:00N 50°13' W 001°23'1515.6
2018-Feb-21 11:02N 50°26' W 001°13'015.5
2018-Feb-21 11:00N 50°27' W 001°13'714.8
2018-Feb-21 10:30N 50°33' W 001°07'815.1
2018-Feb-21 10:00N 50°39' W 001°00'714.8
2018-Feb-21 09:30N 50°46' W 001°05'3 6.0
2018-Feb-21 09:00N 50°49' W 001°06'0 0.0
2018-Feb-21 08:30N 50°49' W 001°06'0 0.0
2018-Feb-21 08:00N 50°49' W 001°06'0 0.0
2018-Feb-21 07:30N 50°49' W 001°06'0 0.0
2018-Feb-21 07:00N 50°49' W 001°06'0 0.0
2018-Feb-21 06:30N 50°49' W 001°06'2 3.5
2018-Feb-21 06:01N 50°47' W 001°06'612.8
2018-Feb-21 05:30N 50°41' W 001°03'714.1
2018-Feb-21 05:00N 50°35' W 001°09'713.6
2018-Feb-21 04:31N 50°29' W 001°15'1013.8
2018-Feb-21 03:48N 50°21' W 001°23'413.6
2018-Feb-21 03:31N 50°18' W 001°26'813.0
2018-Feb-21 02:52N 50°11' W 001°34'3 9.6
2018-Feb-21 02:30N 50°09' W 001°38'510.7
2018-Feb-21 02:01N 50°05' W 001°43'611.3
2018-Feb-21 01:31N 50°00' W 001°48'611.3
2018-Feb-21 01:01N 49°55' W 001°53'611.9
2018-Feb-21 00:30N 49°50' W 001°57'815.2
2018-Feb-21 00:00N 49°43' W 002°03'918.2
2018-Feb-20 23:30N 49°35' W 002°09'918.0
2018-Feb-20 23:00N 49°27' W 002°14'917.6
2018-Feb-20 22:31N 49°19' W 002°19'3 0.8
2018-Feb-20 18:29N 49°17' W 002°23'918.4
2018-Feb-20 18:00N 49°25' W 002°29'3 6.5
2018-Feb-20 17:30N 49°27' W 002°32'0 0.0
2018-Feb-20 17:00N 49°27' W 002°32'0 0.0
2018-Feb-20 16:30N 49°27' W 002°32'1 2.1
2018-Feb-20 16:00N 49°27' W 002°30'3 5.7
2018-Feb-20 15:30N 49°26' W 002°26'919.1
2018-Feb-20 15:01N 49°32' W 002°14'1019.2
2018-Feb-20 14:30N 49°39' W 002°05'1019.2
2018-Feb-20 14:01N 49°47' W 001°56'917.5
2018-Feb-20 13:30N 49°53' W 001°46'816.6
2018-Feb-20 13:01N 49°59' W 001°38'815.8
2018-Feb-20 12:30N 50°07' W 001°35'815.6
2018-Feb-20 12:01N 50°13' W 001°28'915.3
2018-Feb-20 11:26N 50°21' W 001°20'915.1
2018-Feb-20 10:49N 50°29' W 001°13'514.5
2018-Feb-20 10:30N 50°32' W 001°09'714.9
2018-Feb-20 10:00N 50°39' W 001°02'714.6
2018-Feb-20 09:31N 50°46' W 001°05'3 6.4
2018-Feb-20 09:00N 50°49' W 001°06'0 0.0
2018-Feb-20 08:30N 50°49' W 001°06'0 0.0
2018-Feb-20 08:00N 50°49' W 001°06'0 0.0
2018-Feb-20 07:30N 50°49' W 001°06'0 0.0
2018-Feb-20 07:00N 50°49' W 001°06'0 0.0
2018-Feb-20 06:30N 50°49' W 001°06'2 3.9
2018-Feb-20 06:00N 50°47' W 001°06'612.4
2018-Feb-20 05:31N 50°41' W 001°01'714.1
2018-Feb-20 05:00N 50°35' W 001°07'713.8
2018-Feb-20 04:28N 50°30' W 001°14'611.3
2018-Feb-20 03:57N 50°26' W 001°21'510.8
2018-Feb-20 03:30N 50°22' W 001°26'510.9
2018-Feb-20 03:00N 50°18' W 001°32'510.9
2018-Feb-20 02:31N 50°14' W 001°37'611.2
2018-Feb-20 02:01N 50°08' W 001°37'611.9
2018-Feb-20 01:31N 50°03' W 001°42'611.2
2018-Feb-20 01:00N 49°60' W 001°49'612.5
2018-Feb-20 00:31N 49°54' W 001°54'917.9
2018-Feb-20 00:00N 49°46' W 002°01'918.4
2018-Feb-19 23:30N 49°38' W 002°06'918.2
2018-Feb-19 23:01N 49°29' W 002°11'918.4
2018-Feb-19 22:30N 49°21' W 002°18'6 1.3
2018-Feb-19 18:16N 49°17' W 002°24'518.1
2018-Feb-19 18:01N 49°21' W 002°26'713.6
2018-Feb-19 17:30N 49°27' W 002°32'0 0.0
2018-Feb-19 17:00N 49°27' W 002°32'0 0.0
2018-Feb-19 16:30N 49°27' W 002°32'2 4.9
2018-Feb-19 16:00N 49°26' W 002°29'713.9
2018-Feb-19 15:30N 49°29' W 002°20'713.6
2018-Feb-19 15:00N 49°33' W 002°11'815.6
2018-Feb-19 14:31N 49°40' W 002°06'1020.2
2018-Feb-19 14:00N 49°48' W 001°58'815.6
2018-Feb-19 13:30N 49°55' W 001°51'815.7
2018-Feb-19 13:00N 50°02' W 001°47'815.4
2018-Feb-19 12:30N 50°06' W 001°37'815.6
2018-Feb-19 12:00N 50°12' W 001°30'1215.2
2018-Feb-19 11:14N 50°22' W 001°19'814.7
2018-Feb-19 10:42N 50°29' W 001°13'314.1
2018-Feb-19 10:30N 50°31' W 001°10'714.1
2018-Feb-19 10:00N 50°37' W 001°04'713.6
2018-Feb-19 09:30N 50°44' W 001°03'510.8
2018-Feb-19 09:01N 50°49' W 001°06'0 0.4
2018-Feb-19 08:30N 50°49' W 001°06'0 0.0
2018-Feb-19 08:00N 50°49' W 001°06'0 0.0
2018-Feb-19 07:30N 50°49' W 001°06'0 0.0
2018-Feb-19 07:00N 50°49' W 001°06'0 0.0
2018-Feb-19 06:30N 50°49' W 001°06'0 0.0
2018-Feb-19 06:00N 50°49' W 001°06'0 0.0
2018-Feb-19 05:30N 50°49' W 001°06'0 0.0
2018-Feb-19 05:00N 50°49' W 001°06'0 0.0
2018-Feb-19 04:30N 50°49' W 001°06'0 0.0
2018-Feb-19 04:00N 50°49' W 001°06'0 0.0
2018-Feb-19 03:30N 50°49' W 001°06'0 0.0
2018-Feb-19 03:01N 50°49' W 001°06'0 0.0
2018-Feb-19 02:30N 50°49' W 001°06'0 0.0
2018-Feb-19 02:00N 50°49' W 001°06'0 0.0
2018-Feb-19 01:30N 50°49' W 001°06'0 0.0
2018-Feb-19 01:00N 50°49' W 001°06'0 0.0
2018-Feb-19 00:30N 50°49' W 001°06'0 0.0
2018-Feb-19 00:00N 50°49' W 001°06'0 0.0
2018-Feb-18 23:30N 50°49' W 001°06'0 0.0
2018-Feb-18 23:00N 50°49' W 001°06'0 0.0
2018-Feb-18 22:30N 50°49' W 001°06'0 0.0
2018-Feb-18 22:01N 50°49' W 001°06'0 0.0
2018-Feb-18 21:30N 50°49' W 001°06'0 0.0
2018-Feb-18 21:00N 50°49' W 001°06'0 0.0
2018-Feb-18 20:30N 50°49' W 001°06'0 0.0
2018-Feb-18 20:00N 50°49' W 001°06'0 0.0
2018-Feb-18 19:30N 50°49' W 001°06'2 4.8
2018-Feb-18 19:01N 50°46' W 001°06'714.1
2018-Feb-18 18:30N 50°41' W 000°58'816.2
2018-Feb-18 18:01N 50°35' W 001°06'1915.6
2018-Feb-18 16:47N 50°19' W 001°24'415.1
2018-Feb-18 16:30N 50°16' W 001°29'714.6
2018-Feb-18 16:01N 50°11' W 001°36'713.5
2018-Feb-18 15:30N 50°07' W 001°45'713.6
2018-Feb-18 15:00N 50°02' W 001°53'815.1
2018-Feb-18 14:31N 49°55' W 001°55'815.1
2018-Feb-18 14:01N 49°48' W 001°59'612.3
2018-Feb-18 13:30N 49°42' W 002°04'714.1
2018-Feb-18 13:00N 49°36' W 002°08'714.4
2018-Feb-18 12:30N 49°31' W 002°16'816.4
2018-Feb-18 12:00N 49°26' W 002°26'4 7.4
2018-Feb-18 11:30N 49°27' W 002°32'0 0.0
2018-Feb-18 10:58N 49°27' W 002°32'0 0.0
2018-Feb-18 10:30N 49°27' W 002°32'0 0.0
2018-Feb-18 09:59N 49°27' W 002°32'3 6.5
2018-Feb-18 09:31N 49°25' W 002°29'816.0
2018-Feb-18 09:00N 49°18' W 002°23'816.6
2018-Feb-18 08:30N 49°10' W 002°18'14 3.8
2018-Feb-18 04:48N 49°24' W 002°15'712.5
2018-Feb-18 04:16N 49°31' W 002°11'312.7
2018-Feb-18 04:00N 49°34' W 002°09'612.9
2018-Feb-18 03:30N 49°40' W 002°06'714.5
2018-Feb-18 03:00N 49°46' W 002°02'713.5
2018-Feb-18 02:31N 49°53' W 001°57'816.8
2018-Feb-18 02:00N 49°59' W 001°48'918.6
2018-Feb-18 01:30N 50°06' W 001°39'918.0
2018-Feb-18 01:00N 50°13' W 001°31'1417.3
2018-Feb-18 00:11N 50°25' W 001°18'316.9
2018-Feb-18 00:00N 50°27' W 001°16'816.4
2018-Feb-17 23:30N 50°35' W 001°10'816.0
2018-Feb-17 23:01N 50°41' W 001°03'714.1
2018-Feb-17 22:31N 50°48' W 001°07'1 2.4
2018-Feb-17 22:00N 50°49' W 001°06'0 0.0
2018-Feb-17 21:30N 50°49' W 001°06'0 0.0
2018-Feb-17 21:00N 50°49' W 001°06'0 0.0
2018-Feb-17 20:30N 50°49' W 001°06'0 0.0
2018-Feb-17 20:00N 50°49' W 001°06'1 2.7
2018-Feb-17 19:30N 50°48' W 001°07'713.2
2018-Feb-17 19:00N 50°43' W 000°60'815.9
2018-Feb-17 18:30N 50°35' W 001°04'1217.2
2018-Feb-17 17:49N 50°26' W 001°17'916.5
2018-Feb-17 17:15N 50°20' W 001°27'416.0
2018-Feb-17 17:00N 50°17' W 001°31'815.7
2018-Feb-17 16:30N 50°10' W 001°37'714.5
2018-Feb-17 16:00N 50°05' W 001°45'714.2
2018-Feb-17 15:31N 49°59' W 001°52'612.0
2018-Feb-17 15:00N 49°54' W 001°55'612.0
2018-Feb-17 14:31N 49°48' W 001°59'612.3
2018-Feb-17 14:00N 49°43' W 002°03'612.6
2018-Feb-17 13:30N 49°37' W 002°07'814.8
2018-Feb-17 12:58N 49°29' W 002°11'715.9
2018-Feb-17 12:31N 49°23' W 002°15'815.5
2018-Feb-17 12:00N 49°16' W 002°21'1014.7
2018-Feb-17 11:18N 49°10' W 002°08'1 0.5
2018-Feb-17 09:18N 49°11' W 002°07'311.0
2018-Feb-17 08:59N 49°08' W 002°04'1016.5
2018-Feb-17 08:22N 48°59' W 001°55'26 1.9
2018-Feb-16 18:33N 49°18' W 002°23'116.8
2018-Feb-16 18:30N 49°18' W 002°24'816.4
2018-Feb-16 18:00N 49°26' W 002°30'2 4.6
2018-Feb-16 17:30N 49°27' W 002°32'0 0.0
2018-Feb-16 17:00N 49°27' W 002°32'0 0.0
2018-Feb-16 16:30N 49°27' W 002°32'0 0.0
2018-Feb-16 16:00N 49°27' W 002°32'3 6.7
2018-Feb-16 15:31N 49°25' W 002°28'815.6
2018-Feb-16 15:00N 49°30' W 002°18'713.4
2018-Feb-16 14:30N 49°34' W 002°10'612.5
2018-Feb-16 14:01N 49°39' W 002°04'918.9
2018-Feb-16 13:31N 49°48' W 001°60'919.0
2018-Feb-16 13:01N 49°55' W 001°49'918.6
2018-Feb-16 12:31N 50°01' W 001°39'917.5
2018-Feb-16 12:00N 50°10' W 001°34'1017.2
2018-Feb-16 11:26N 50°18' W 001°27'1216.4
2018-Feb-16 10:42N 50°28' W 001°17'315.9
2018-Feb-16 10:30N 50°31' W 001°14'815.5
2018-Feb-16 10:01N 50°37' W 001°07'714.4
2018-Feb-16 09:31N 50°44' W 001°04'5 9.4
2018-Feb-16 09:00N 50°49' W 001°06'0 0.1
2018-Feb-16 08:30N 50°49' W 001°06'0 0.0
2018-Feb-16 08:00N 50°49' W 001°06'0 0.0
2018-Feb-16 07:30N 50°49' W 001°06'0 0.0
2018-Feb-16 07:00N 50°49' W 001°06'0 0.0
2018-Feb-16 06:30N 50°49' W 001°06'1 2.8
2018-Feb-16 06:00N 50°47' W 001°07'713.2
2018-Feb-16 05:30N 50°43' W 000°59'815.4
2018-Feb-16 05:00N 50°35' W 001°03'714.6
2018-Feb-16 04:30N 50°30' W 001°11'611.4
2018-Feb-16 04:00N 50°27' W 001°18'711.0
2018-Feb-16 03:21N 50°22' W 001°27'510.4
2018-Feb-16 02:54N 50°19' W 001°32'510.1
2018-Feb-16 02:27N 50°16' W 001°38'512.5
2018-Feb-16 02:01N 50°11' W 001°41'714.4
2018-Feb-16 01:30N 50°05' W 001°46'713.6
2018-Feb-16 01:00N 50°00' W 001°54'715.0
2018-Feb-16 00:30N 49°53' W 001°59'815.3
2018-Feb-16 00:00N 49°46' W 002°03'714.0
2018-Feb-15 23:31N 49°40' W 002°06'815.8
2018-Feb-15 23:00N 49°32' W 002°11'917.2
2018-Feb-15 22:30N 49°24' W 002°16'8 1.8
2018-Feb-15 18:01N 49°18' W 002°24'017.4
2018-Feb-15 18:01N 49°18' W 002°24'816.8
2018-Feb-15 17:31N 49°26' W 002°30'2 4.4
2018-Feb-15 17:00N 49°27' W 002°32'0 0.0
2018-Feb-15 16:30N 49°27' W 002°32'0 0.0
2018-Feb-15 16:01N 49°27' W 002°32'4 7.3
2018-Feb-15 15:30N 49°26' W 002°26'816.9
2018-Feb-15 15:01N 49°31' W 002°16'612.9
2018-Feb-15 14:30N 49°35' W 002°08'612.5
2018-Feb-15 14:01N 49°40' W 002°04'816.2
2018-Feb-15 13:30N 49°48' W 001°58'714.1
2018-Feb-15 13:01N 49°54' W 001°52'918.3
2018-Feb-15 12:30N 50°01' W 001°44'918.0
2018-Feb-15 12:01N 50°09' W 001°36'1016.1
2018-Feb-15 11:23N 50°17' W 001°27'916.6
2018-Feb-15 10:50N 50°24' W 001°19'616.1
2018-Feb-15 10:26N 50°30' W 001°14'715.8
2018-Feb-15 10:01N 50°36' W 001°08'815.4
2018-Feb-15 09:31N 50°43' W 001°03'612.9
2018-Feb-15 09:01N 50°49' W 001°07'1 1.1
2018-Feb-15 08:30N 50°49' W 001°06'0 0.0
2018-Feb-15 08:00N 50°49' W 001°06'0 0.0
2018-Feb-15 07:30N 50°49' W 001°06'0 0.0
2018-Feb-15 07:00N 50°49' W 001°06'0 0.0
2018-Feb-15 06:30N 50°49' W 001°06'2 3.1
2018-Feb-15 06:01N 50°47' W 001°07'612.9
2018-Feb-15 05:31N 50°43' W 000°59'815.7
2018-Feb-15 05:01N 50°35' W 001°03'916.2
2018-Feb-15 04:27N 50°28' W 001°11'1213.5
2018-Feb-15 03:33N 50°21' W 001°26'213.8
2018-Feb-15 03:25N 50°19' W 001°29'614.7
2018-Feb-15 03:01N 50°15' W 001°34'815.8
2018-Feb-15 02:30N 50°07' W 001°39'2114.7
2018-Feb-15 01:06N 49°49' W 001°55'114.3
2018-Feb-15 01:01N 49°48' W 001°57'612.8
2018-Feb-15 00:30N 49°44' W 002°03'612.5
2018-Feb-15 00:01N 49°38' W 002°07'815.3
2018-Feb-14 23:31N 49°31' W 002°11'916.5
2018-Feb-14 22:59N 49°23' W 002°16'25 2.8
2018-Feb-14 14:06N 49°45' W 001°60'216.5
2018-Feb-14 14:00N 49°47' W 001°59'816.8
2018-Feb-14 13:31N 49°53' W 001°51'917.1
2018-Feb-14 13:00N 50°00' W 001°43'917.1
2018-Feb-14 12:30N 50°07' W 001°36'816.7
2018-Feb-14 12:00N 50°14' W 001°28'1315.9
2018-Feb-14 11:12N 50°25' W 001°18'315.8
2018-Feb-14 11:00N 50°28' W 001°16'815.8
2018-Feb-14 10:31N 50°35' W 001°10'816.0
2018-Feb-14 10:01N 50°41' W 001°03'713.5
2018-Feb-14 09:30N 50°48' W 001°07'1 2.6
2018-Feb-14 09:00N 50°49' W 001°06'0 0.0
2018-Feb-14 08:30N 50°49' W 001°06'0 0.0
2018-Feb-14 08:01N 50°49' W 001°06'0 0.0
2018-Feb-14 07:30N 50°49' W 001°06'0 0.0
2018-Feb-14 07:00N 50°49' W 001°06'0 0.0
2018-Feb-14 06:30N 50°49' W 001°06'1 2.6
2018-Feb-14 06:01N 50°48' W 001°07'713.5
2018-Feb-14 05:31N 50°42' W 001°01'815.8
2018-Feb-14 05:00N 50°35' W 001°07'713.5
2018-Feb-14 04:30N 50°30' W 001°14'612.7
2018-Feb-14 04:00N 50°26' W 001°22'810.7
2018-Feb-14 03:13N 50°20' W 001°31'2 9.7
2018-Feb-14 03:01N 50°18' W 001°32'714.3
2018-Feb-14 02:30N 50°12' W 001°37'612.7
2018-Feb-14 02:00N 50°07' W 001°44'714.1
2018-Feb-14 01:30N 50°02' W 001°52'714.5
2018-Feb-14 01:01N 49°56' W 001°57'815.1
2018-Feb-14 00:30N 49°48' W 001°60'36 6.0
2018-Feb-13 18:27N 49°15' W 002°22'716.3
2018-Feb-13 18:01N 49°22' W 002°26'713.0
2018-Feb-13 17:30N 49°27' W 002°32'0 0.0
2018-Feb-13 17:01N 49°27' W 002°32'0 0.0
2018-Feb-13 16:30N 49°27' W 002°32'3 5.6
2018-Feb-13 16:01N 49°26' W 002°28'714.9
2018-Feb-13 15:31N 49°30' W 002°19'815.6
2018-Feb-13 15:01N 49°34' W 002°09'816.3
2018-Feb-13 14:30N 49°41' W 002°03'918.1
2018-Feb-13 14:00N 49°49' W 001°56'917.9
2018-Feb-13 13:31N 49°57' W 001°48'918.0
2018-Feb-13 13:00N 50°04' W 001°41'917.6
2018-Feb-13 12:30N 50°12' W 001°33'815.5
2018-Feb-13 11:59N 50°19' W 001°27'912.7
2018-Feb-13 11:16N 50°26' W 001°19'312.1
2018-Feb-13 11:00N 50°29' W 001°16'611.8
2018-Feb-13 10:31N 50°33' W 001°10'612.6
2018-Feb-13 10:00N 50°39' W 001°05'612.2
2018-Feb-13 09:30N 50°45' W 001°05'4 7.8
2018-Feb-13 09:00N 50°49' W 001°06'0 0.0
2018-Feb-13 08:30N 50°49' W 001°06'0 0.0
2018-Feb-13 08:00N 50°49' W 001°06'0 0.0
2018-Feb-13 07:31N 50°49' W 001°06'0 0.0
2018-Feb-13 07:00N 50°49' W 001°06'0 0.0
2018-Feb-13 06:30N 50°49' W 001°06'1 1.7
2018-Feb-13 06:01N 50°48' W 001°07'611.9
2018-Feb-13 05:31N 50°43' W 001°02'714.1
2018-Feb-13 05:01N 50°37' W 001°06'1811.3
2018-Feb-13 03:25N 50°21' W 001°20'410.3
2018-Feb-13 03:00N 50°18' W 001°23'816.3
2018-Feb-13 02:31N 50°11' W 001°31'815.6
2018-Feb-13 02:00N 50°06' W 001°40'815.6
2018-Feb-13 01:30N 49°59' W 001°47'815.4
2018-Feb-13 01:00N 49°53' W 001°53'715.0
2018-Feb-13 00:31N 49°47' W 001°60'713.0
2018-Feb-13 00:00N 49°41' W 002°05'714.1
2018-Feb-12 23:31N 49°34' W 002°09'815.6
2018-Feb-12 22:58N 49°30' W 002°19'715.2
2018-Feb-12 22:30N 49°26' W 002°28'3 5.7
2018-Feb-12 22:00N 49°27' W 002°32'0 0.0
2018-Feb-12 21:30N 49°27' W 002°32'0 0.0
2018-Feb-12 21:00N 49°27' W 002°32'3 6.3
2018-Feb-12 20:31N 49°25' W 002°29'14 2.5
2018-Feb-12 14:55N 49°32' W 002°10'1517.0
2018-Feb-12 14:02N 49°46' W 002°01'118.1
2018-Feb-12 14:00N 49°46' W 002°01'917.5
2018-Feb-12 13:30N 49°53' W 001°53'918.1
2018-Feb-12 13:01N 50°01' W 001°45'917.7
2018-Feb-12 12:30N 50°09' W 001°39'917.9
2018-Feb-12 12:00N 50°16' W 001°31'1316.2
2018-Feb-12 11:10N 50°27' W 001°19'416.3
2018-Feb-12 10:55N 50°30' W 001°15'  
Track history (hours):
 
Tides and Currents Weather Stations Pressure Air Temp Water Temp Dewpoint Dewpoint Depression Visibility Wind Speed Wind Dir Waves Ship Positions

Commodore Clipper

Operator: Condor Marine Services

Last reported at 2018-Feb-22 10:30 UTC. Time now 2018-Feb-22 10:38 UTC.
Position N 50°33' W 001°08'.

Length 130 m; draft 5.2 m.

Type: Ship. MMSI: 308094000.

Date/timePositionNaut miles runAvg speedWind from/ knotsBaromVisibWave heightAir tempDewpointWater temp
2018-Feb-22 10:30N 50°33' W 001°08'815.6
2018-Feb-22 10:01N 50°40' W 001°01'714.6
2018-Feb-22 09:31N 50°46' W 001°06'2 4.5
2018-Feb-22 09:00N 50°49' W 001°06'0 0.0
2018-Feb-22 08:30N 50°49' W 001°06'0 0.0
2018-Feb-22 08:01N 50°49' W 001°06'0 0.0
2018-Feb-22 07:30N 50°49' W 001°06'0 0.0
2018-Feb-22 07:01N 50°49' W 001°06'0 0.0
2018-Feb-22 06:30N 50°49' W 001°06'1 2.1
2018-Feb-22 06:01N 50°48' W 001°07'612.2
2018-Feb-22 05:31N 50°42' W 001°03'713.0
2018-Feb-22 05:00N 50°36' W 001°08'612.0
2018-Feb-22 04:30N 50°31' W 001°13'6 9.8
2018-Feb-22 03:55N 50°27' W 001°19'1110.1
2018-Feb-22 02:48N 50°18' W 001°30'310.6
2018-Feb-22 02:30N 50°16' W 001°33'611.3
2018-Feb-22 02:00N 50°12' W 001°39'712.7
2018-Feb-22 01:29N 50°07' W 001°47'612.9
2018-Feb-22 01:00N 50°03' W 001°54'612.7
2018-Feb-22 00:31N 49°58' W 001°59'917.5
2018-Feb-22 00:01N 49°49' W 002°00'1020.0
2018-Feb-21 23:31N 49°40' W 002°06'918.9
2018-Feb-21 23:00N 49°31' W 002°11'918.8
2018-Feb-21 22:30N 49°22' W 002°17'7 1.7
2018-Feb-21 18:11N 49°16' W 002°22'418.1
2018-Feb-21 17:57N 49°19' W 002°25'817.6
2018-Feb-21 17:31N 49°27' W 002°30'2 3.2
2018-Feb-21 17:00N 49°27' W 002°32'0 0.0
2018-Feb-21 16:31N 49°27' W 002°32'0 0.3
2018-Feb-21 16:01N 49°27' W 002°32'713.5
2018-Feb-21 15:31N 49°28' W 002°21'918.9
2018-Feb-21 15:00N 49°34' W 002°10'1019.3
2018-Feb-21 14:30N 49°43' W 002°03'917.9
2018-Feb-21 14:01N 49°49' W 001°53'816.2
2018-Feb-21 13:30N 49°54' W 001°43'815.8
2018-Feb-21 13:00N 49°59' W 001°34'815.4
2018-Feb-21 12:30N 50°05' W 001°28'815.5
2018-Feb-21 12:00N 50°13' W 001°23'1515.6
2018-Feb-21 11:02N 50°26' W 001°13'015.5
2018-Feb-21 11:00N 50°27' W 001°13'714.8
2018-Feb-21 10:30N 50°33' W 001°07'815.1
2018-Feb-21 10:00N 50°39' W 001°00'714.8
2018-Feb-21 09:30N 50°46' W 001°05'3 6.0
2018-Feb-21 09:00N 50°49' W 001°06'0 0.0
2018-Feb-21 08:30N 50°49' W 001°06'0 0.0
2018-Feb-21 08:00N 50°49' W 001°06'0 0.0
2018-Feb-21 07:30N 50°49' W 001°06'0 0.0
2018-Feb-21 07:00N 50°49' W 001°06'0 0.0
2018-Feb-21 06:30N 50°49' W 001°06'2 3.5
2018-Feb-21 06:01N 50°47' W 001°06'612.8
2018-Feb-21 05:30N 50°41' W 001°03'714.1
2018-Feb-21 05:00N 50°35' W 001°09'713.6
2018-Feb-21 04:31N 50°29' W 001°15'1013.8
2018-Feb-21 03:48N 50°21' W 001°23'413.6
2018-Feb-21 03:31N 50°18' W 001°26'813.0
2018-Feb-21 02:52N 50°11' W 001°34'3 9.6
2018-Feb-21 02:30N 50°09' W 001°38'510.7
2018-Feb-21 02:01N 50°05' W 001°43'611.3
2018-Feb-21 01:31N 50°00' W 001°48'611.3
2018-Feb-21 01:01N 49°55' W 001°53'611.9
2018-Feb-21 00:30N 49°50' W 001°57'815.2
2018-Feb-21 00:00N 49°43' W 002°03'918.2
2018-Feb-20 23:30N 49°35' W 002°09'918.0
2018-Feb-20 23:00N 49°27' W 002°14'917.6
2018-Feb-20 22:31N 49°19' W 002°19'3 0.8
2018-Feb-20 18:29N 49°17' W 002°23'918.4
2018-Feb-20 18:00N 49°25' W 002°29'3 6.5
2018-Feb-20 17:30N 49°27' W 002°32'0 0.0
2018-Feb-20 17:00N 49°27' W 002°32'0 0.0
2018-Feb-20 16:30N 49°27' W 002°32'1 2.1
2018-Feb-20 16:00N 49°27' W 002°30'3 5.7
2018-Feb-20 15:30N 49°26' W 002°26'919.1
2018-Feb-20 15:01N 49°32' W 002°14'1019.2
2018-Feb-20 14:30N 49°39' W 002°05'1019.2
2018-Feb-20 14:01N 49°47' W 001°56'917.5
2018-Feb-20 13:30N 49°53' W 001°46'816.6
2018-Feb-20 13:01N 49°59' W 001°38'815.8
2018-Feb-20 12:30N 50°07' W 001°35'815.6
2018-Feb-20 12:01N 50°13' W 001°28'915.3
2018-Feb-20 11:26N 50°21' W 001°20'915.1
2018-Feb-20 10:49N 50°29' W 001°13'514.5
2018-Feb-20 10:30N 50°32' W 001°09'714.9
2018-Feb-20 10:00N 50°39' W 001°02'714.6
2018-Feb-20 09:31N 50°46' W 001°05'3 6.4
2018-Feb-20 09:00N 50°49' W 001°06'0 0.0
2018-Feb-20 08:30N 50°49' W 001°06'0 0.0
2018-Feb-20 08:00N 50°49' W 001°06'0 0.0
2018-Feb-20 07:30N 50°49' W 001°06'0 0.0
2018-Feb-20 07:00N 50°49' W 001°06'0 0.0
2018-Feb-20 06:30N 50°49' W 001°06'2 3.9
2018-Feb-20 06:00N 50°47' W 001°06'612.4
2018-Feb-20 05:31N 50°41' W 001°01'714.1
2018-Feb-20 05:00N 50°35' W 001°07'713.8
2018-Feb-20 04:28N 50°30' W 001°14'611.3
2018-Feb-20 03:57N 50°26' W 001°21'510.8
2018-Feb-20 03:30N 50°22' W 001°26'510.9
2018-Feb-20 03:00N 50°18' W 001°32'510.9
2018-Feb-20 02:31N 50°14' W 001°37'611.2
2018-Feb-20 02:01N 50°08' W 001°37'611.9
2018-Feb-20 01:31N 50°03' W 001°42'611.2
2018-Feb-20 01:00N 49°60' W 001°49'612.5
2018-Feb-20 00:31N 49°54' W 001°54'917.9
2018-Feb-20 00:00N 49°46' W 002°01'918.4
2018-Feb-19 23:30N 49°38' W 002°06'918.2
2018-Feb-19 23:01N 49°29' W 002°11'918.4
2018-Feb-19 22:30N 49°21' W 002°18'6 1.3
2018-Feb-19 18:16N 49°17' W 002°24'518.1
2018-Feb-19 18:01N 49°21' W 002°26'713.6
2018-Feb-19 17:30N 49°27' W 002°32'0 0.0
2018-Feb-19 17:00N 49°27' W 002°32'0 0.0
2018-Feb-19 16:30N 49°27' W 002°32'2 4.9
2018-Feb-19 16:00N 49°26' W 002°29'713.9
2018-Feb-19 15:30N 49°29' W 002°20'713.6
2018-Feb-19 15:00N 49°33' W 002°11'815.6
2018-Feb-19 14:31N 49°40' W 002°06'1020.2
2018-Feb-19 14:00N 49°48' W 001°58'815.6
2018-Feb-19 13:30N 49°55' W 001°51'815.7
2018-Feb-19 13:00N 50°02' W 001°47'815.4
2018-Feb-19 12:30N 50°06' W 001°37'815.6
2018-Feb-19 12:00N 50°12' W 001°30'1215.2
2018-Feb-19 11:14N 50°22' W 001°19'814.7
2018-Feb-19 10:42N 50°29' W 001°13'314.1
2018-Feb-19 10:30N 50°31' W 001°10'714.1
2018-Feb-19 10:00N 50°37' W 001°04'713.6
2018-Feb-19 09:30N 50°44' W 001°03'510.8
2018-Feb-19 09:01N 50°49' W 001°06'0 0.4
2018-Feb-19 08:30N 50°49' W 001°06'0 0.0
2018-Feb-19 08:00N 50°49' W 001°06'0 0.0
2018-Feb-19 07:30N 50°49' W 001°06'0 0.0
2018-Feb-19 07:00N 50°49' W 001°06'0 0.0
2018-Feb-19 06:30N 50°49' W 001°06'0 0.0
2018-Feb-19 06:00N 50°49' W 001°06'0 0.0
2018-Feb-19 05:30N 50°49' W 001°06'0 0.0
2018-Feb-19 05:00N 50°49' W 001°06'0 0.0
2018-Feb-19 04:30N 50°49' W 001°06'0 0.0
2018-Feb-19 04:00N 50°49' W 001°06'0 0.0
2018-Feb-19 03:30N 50°49' W 001°06'0 0.0
2018-Feb-19 03:01N 50°49' W 001°06'0 0.0
2018-Feb-19 02:30N 50°49' W 001°06'0 0.0
2018-Feb-19 02:00N 50°49' W 001°06'0 0.0
2018-Feb-19 01:30N 50°49' W 001°06'0 0.0
2018-Feb-19 01:00N 50°49' W 001°06'0 0.0
2018-Feb-19 00:30N 50°49' W 001°06'0 0.0
2018-Feb-19 00:00N 50°49' W 001°06'0 0.0
2018-Feb-18 23:30N 50°49' W 001°06'0 0.0
2018-Feb-18 23:00N 50°49' W 001°06'0 0.0
2018-Feb-18 22:30N 50°49' W 001°06'0 0.0
2018-Feb-18 22:01N 50°49' W 001°06'0 0.0
2018-Feb-18 21:30N 50°49' W 001°06'0 0.0
2018-Feb-18 21:00N 50°49' W 001°06'0 0.0
2018-Feb-18 20:30N 50°49' W 001°06'0 0.0
2018-Feb-18 20:00N 50°49' W 001°06'0 0.0
2018-Feb-18 19:30N 50°49' W 001°06'2 4.8
2018-Feb-18 19:01N 50°46' W 001°06'714.1
2018-Feb-18 18:30N 50°41' W 000°58'816.2
2018-Feb-18 18:01N 50°35' W 001°06'1915.6
2018-Feb-18 16:47N 50°19' W 001°24'415.1
2018-Feb-18 16:30N 50°16' W 001°29'714.6
2018-Feb-18 16:01N 50°11' W 001°36'713.5
2018-Feb-18 15:30N 50°07' W 001°45'713.6
2018-Feb-18 15:00N 50°02' W 001°53'815.1
2018-Feb-18 14:31N 49°55' W 001°55'815.1
2018-Feb-18 14:01N 49°48' W 001°59'612.3
2018-Feb-18 13:30N 49°42' W 002°04'714.1
2018-Feb-18 13:00N 49°36' W 002°08'714.4
2018-Feb-18 12:30N 49°31' W 002°16'816.4
2018-Feb-18 12:00N 49°26' W 002°26'4 7.4
2018-Feb-18 11:30N 49°27' W 002°32'0 0.0
2018-Feb-18 10:58N 49°27' W 002°32'0 0.0
2018-Feb-18 10:30N 49°27' W 002°32'0 0.0
2018-Feb-18 09:59N 49°27' W 002°32'3 6.5
2018-Feb-18 09:31N 49°25' W 002°29'816.0
2018-Feb-18 09:00N 49°18' W 002°23'816.6
2018-Feb-18 08:30N 49°10' W 002°18'14 3.8
2018-Feb-18 04:48N 49°24' W 002°15'712.5
2018-Feb-18 04:16N 49°31' W 002°11'312.7
2018-Feb-18 04:00N 49°34' W 002°09'612.9
2018-Feb-18 03:30N 49°40' W 002°06'714.5
2018-Feb-18 03:00N 49°46' W 002°02'713.5
2018-Feb-18 02:31N 49°53' W 001°57'816.8
2018-Feb-18 02:00N 49°59' W 001°48'918.6
2018-Feb-18 01:30N 50°06' W 001°39'918.0
2018-Feb-18 01:00N 50°13' W 001°31'1417.3
2018-Feb-18 00:11N 50°25' W 001°18'316.9
2018-Feb-18 00:00N 50°27' W 001°16'816.4
2018-Feb-17 23:30N 50°35' W 001°10'816.0
2018-Feb-17 23:01N 50°41' W 001°03'714.1
2018-Feb-17 22:31N 50°48' W 001°07'1 2.4
2018-Feb-17 22:00N 50°49' W 001°06'0 0.0
2018-Feb-17 21:30N 50°49' W 001°06'0 0.0
2018-Feb-17 21:00N 50°49' W 001°06'0 0.0
2018-Feb-17 20:30N 50°49' W 001°06'0 0.0
2018-Feb-17 20:00N 50°49' W 001°06'1 2.7
2018-Feb-17 19:30N 50°48' W 001°07'713.2
2018-Feb-17 19:00N 50°43' W 000°60'815.9
2018-Feb-17 18:30N 50°35' W 001°04'1217.2
2018-Feb-17 17:49N 50°26' W 001°17'916.5
2018-Feb-17 17:15N 50°20' W 001°27'416.0
2018-Feb-17 17:00N 50°17' W 001°31'815.7
2018-Feb-17 16:30N 50°10' W 001°37'714.5
2018-Feb-17 16:00N 50°05' W 001°45'714.2
2018-Feb-17 15:31N 49°59' W 001°52'612.0
2018-Feb-17 15:00N 49°54' W 001°55'612.0
2018-Feb-17 14:31N 49°48' W 001°59'612.3
2018-Feb-17 14:00N 49°43' W 002°03'612.6
2018-Feb-17 13:30N 49°37' W 002°07'814.8
2018-Feb-17 12:58N 49°29' W 002°11'715.9
2018-Feb-17 12:31N 49°23' W 002°15'815.5
2018-Feb-17 12:00N 49°16' W 002°21'1014.7
2018-Feb-17 11:18N 49°10' W 002°08'1 0.5
2018-Feb-17 09:18N 49°11' W 002°07'311.0
2018-Feb-17 08:59N 49°08' W 002°04'1016.5
2018-Feb-17 08:22N 48°59' W 001°55'26 1.9
2018-Feb-16 18:33N 49°18' W 002°23'116.8
2018-Feb-16 18:30N 49°18' W 002°24'816.4
2018-Feb-16 18:00N 49°26' W 002°30'2 4.6
2018-Feb-16 17:30N 49°27' W 002°32'0 0.0
2018-Feb-16 17:00N 49°27' W 002°32'0 0.0
2018-Feb-16 16:30N 49°27' W 002°32'0 0.0
2018-Feb-16 16:00N 49°27' W 002°32'3 6.7
2018-Feb-16 15:31N 49°25' W 002°28'815.6
2018-Feb-16 15:00N 49°30' W 002°18'713.4
2018-Feb-16 14:30N 49°34' W 002°10'612.5
2018-Feb-16 14:01N 49°39' W 002°04'918.9
2018-Feb-16 13:31N 49°48' W 001°60'919.0
2018-Feb-16 13:01N 49°55' W 001°49'918.6
2018-Feb-16 12:31N 50°01' W 001°39'917.5
2018-Feb-16 12:00N 50°10' W 001°34'1017.2
2018-Feb-16 11:26N 50°18' W 001°27'1216.4
2018-Feb-16 10:42N 50°28' W 001°17'315.9
2018-Feb-16 10:30N 50°31' W 001°14'815.5
2018-Feb-16 10:01N 50°37' W 001°07'714.4
2018-Feb-16 09:31N 50°44' W 001°04'5 9.4
2018-Feb-16 09:00N 50°49' W 001°06'0 0.1
2018-Feb-16 08:30N 50°49' W 001°06'0 0.0
2018-Feb-16 08:00N 50°49' W 001°06'0 0.0
2018-Feb-16 07:30N 50°49' W 001°06'0 0.0
2018-Feb-16 07:00N 50°49' W 001°06'0 0.0
2018-Feb-16 06:30N 50°49' W 001°06'1 2.8
2018-Feb-16 06:00N 50°47' W 001°07'713.2
2018-Feb-16 05:30N 50°43' W 000°59'815.4
2018-Feb-16 05:00N 50°35' W 001°03'714.6
2018-Feb-16 04:30N 50°30' W 001°11'611.4
2018-Feb-16 04:00N 50°27' W 001°18'711.0
2018-Feb-16 03:21N 50°22' W 001°27'510.4
2018-Feb-16 02:54N 50°19' W 001°32'510.1
2018-Feb-16 02:27N 50°16' W 001°38'512.5
2018-Feb-16 02:01N 50°11' W 001°41'714.4
2018-Feb-16 01:30N 50°05' W 001°46'713.6
2018-Feb-16 01:00N 50°00' W 001°54'715.0
2018-Feb-16 00:30N 49°53' W 001°59'815.3
2018-Feb-16 00:00N 49°46' W 002°03'714.0
2018-Feb-15 23:31N 49°40' W 002°06'815.8
2018-Feb-15 23:00N 49°32' W 002°11'917.2
2018-Feb-15 22:30N 49°24' W 002°16'8 1.8
2018-Feb-15 18:01N 49°18' W 002°24'017.4
2018-Feb-15 18:01N 49°18' W 002°24'816.8
2018-Feb-15 17:31N 49°26' W 002°30'2 4.4
2018-Feb-15 17:00N 49°27' W 002°32'0 0.0
2018-Feb-15 16:30N 49°27' W 002°32'0 0.0
2018-Feb-15 16:01N 49°27' W 002°32'4 7.3
2018-Feb-15 15:30N 49°26' W 002°26'816.9
2018-Feb-15 15:01N 49°31' W 002°16'612.9
2018-Feb-15 14:30N 49°35' W 002°08'612.5
2018-Feb-15 14:01N 49°40' W 002°04'816.2
2018-Feb-15 13:30N 49°48' W 001°58'714.1
2018-Feb-15 13:01N 49°54' W 001°52'918.3
2018-Feb-15 12:30N 50°01' W 001°44'918.0
2018-Feb-15 12:01N 50°09' W 001°36'1016.1
2018-Feb-15 11:23N 50°17' W 001°27'916.6
2018-Feb-15 10:50N 50°24' W 001°19'616.1
2018-Feb-15 10:26N 50°30' W 001°14'715.8
2018-Feb-15 10:01N 50°36' W 001°08'815.4
2018-Feb-15 09:31N 50°43' W 001°03'612.9
2018-Feb-15 09:01N 50°49' W 001°07'1 1.1
2018-Feb-15 08:30N 50°49' W 001°06'0 0.0
2018-Feb-15 08:00N 50°49' W 001°06'0 0.0
2018-Feb-15 07:30N 50°49' W 001°06'0 0.0
2018-Feb-15 07:00N 50°49' W 001°06'0 0.0
2018-Feb-15 06:30N 50°49' W 001°06'2 3.1
2018-Feb-15 06:01N 50°47' W 001°07'612.9
2018-Feb-15 05:31N 50°43' W 000°59'815.7
2018-Feb-15 05:01N 50°35' W 001°03'916.2
2018-Feb-15 04:27N 50°28' W 001°11'1213.5
2018-Feb-15 03:33N 50°21' W 001°26'213.8
2018-Feb-15 03:25N 50°19' W 001°29'614.7
2018-Feb-15 03:01N 50°15' W 001°34'815.8
2018-Feb-15 02:30N 50°07' W 001°39'2114.7
2018-Feb-15 01:06N 49°49' W 001°55'114.3
2018-Feb-15 01:01N 49°48' W 001°57'612.8
2018-Feb-15 00:30N 49°44' W 002°03'612.5
2018-Feb-15 00:01N 49°38' W 002°07'815.3
2018-Feb-14 23:31N 49°31' W 002°11'916.5
2018-Feb-14 22:59N 49°23' W 002°16'25 2.8
2018-Feb-14 14:06N 49°45' W 001°60'216.5
2018-Feb-14 14:00N 49°47' W 001°59'816.8
2018-Feb-14 13:31N 49°53' W 001°51'917.1
2018-Feb-14 13:00N 50°00' W 001°43'917.1
2018-Feb-14 12:30N 50°07' W 001°36'816.7
2018-Feb-14 12:00N 50°14' W 001°28'1315.9
2018-Feb-14 11:12N 50°25' W 001°18'315.8
2018-Feb-14 11:00N 50°28' W 001°16'815.8
2018-Feb-14 10:31N 50°35' W 001°10'816.0
2018-Feb-14 10:01N 50°41' W 001°03'713.5
2018-Feb-14 09:30N 50°48' W 001°07'1 2.6
2018-Feb-14 09:00N 50°49' W 001°06'0 0.0
2018-Feb-14 08:30N 50°49' W 001°06'0 0.0
2018-Feb-14 08:01N 50°49' W 001°06'0 0.0
2018-Feb-14 07:30N 50°49' W 001°06'0 0.0
2018-Feb-14 07:00N 50°49' W 001°06'0 0.0
2018-Feb-14 06:30N 50°49' W 001°06'1 2.6
2018-Feb-14 06:01N 50°48' W 001°07'713.5
2018-Feb-14 05:31N 50°42' W 001°01'815.8
2018-Feb-14 05:00N 50°35' W 001°07'713.5
2018-Feb-14 04:30N 50°30' W 001°14'612.7
2018-Feb-14 04:00N 50°26' W 001°22'810.7
2018-Feb-14 03:13N 50°20' W 001°31'2 9.7
2018-Feb-14 03:01N 50°18' W 001°32'714.3
2018-Feb-14 02:30N 50°12' W 001°37'612.7
2018-Feb-14 02:00N 50°07' W 001°44'714.1
2018-Feb-14 01:30N 50°02' W 001°52'714.5
2018-Feb-14 01:01N 49°56' W 001°57'815.1
2018-Feb-14 00:30N 49°48' W 001°60'36 6.0
2018-Feb-13 18:27N 49°15' W 002°22'716.3
2018-Feb-13 18:01N 49°22' W 002°26'713.0
2018-Feb-13 17:30N 49°27' W 002°32'0 0.0
2018-Feb-13 17:01N 49°27' W 002°32'0 0.0
2018-Feb-13 16:30N 49°27' W 002°32'3 5.6
2018-Feb-13 16:01N 49°26' W 002°28'714.9
2018-Feb-13 15:31N 49°30' W 002°19'815.6
2018-Feb-13 15:01N 49°34' W 002°09'816.3
2018-Feb-13 14:30N 49°41' W 002°03'918.1
2018-Feb-13 14:00N 49°49' W 001°56'917.9
2018-Feb-13 13:31N 49°57' W 001°48'918.0
2018-Feb-13 13:00N 50°04' W 001°41'917.6
2018-Feb-13 12:30N 50°12' W 001°33'815.5
2018-Feb-13 11:59N 50°19' W 001°27'912.7
2018-Feb-13 11:16N 50°26' W 001°19'312.1
2018-Feb-13 11:00N 50°29' W 001°16'611.8
2018-Feb-13 10:31N 50°33' W 001°10'612.6
2018-Feb-13 10:00N 50°39' W 001°05'612.2
2018-Feb-13 09:30N 50°45' W 001°05'4 7.8
2018-Feb-13 09:00N 50°49' W 001°06'0 0.0
2018-Feb-13 08:30N 50°49' W 001°06'0 0.0
2018-Feb-13 08:00N 50°49' W 001°06'0 0.0
2018-Feb-13 07:31N 50°49' W 001°06'0 0.0
2018-Feb-13 07:00N 50°49' W 001°06'0 0.0
2018-Feb-13 06:30N 50°49' W 001°06'1 1.7
2018-Feb-13 06:01N 50°48' W 001°07'611.9
2018-Feb-13 05:31N 50°43' W 001°02'714.1
2018-Feb-13 05:01N 50°37' W 001°06'1811.3
2018-Feb-13 03:25N 50°21' W 001°20'410.3
2018-Feb-13 03:00N 50°18' W 001°23'816.3
2018-Feb-13 02:31N 50°11' W 001°31'815.6
2018-Feb-13 02:00N 50°06' W 001°40'815.6
2018-Feb-13 01:30N 49°59' W 001°47'815.4
2018-Feb-13 01:00N 49°53' W 001°53'715.0
2018-Feb-13 00:31N 49°47' W 001°60'713.0
2018-Feb-13 00:00N 49°41' W 002°05'714.1
2018-Feb-12 23:31N 49°34' W 002°09'815.6
2018-Feb-12 22:58N 49°30' W 002°19'715.2
2018-Feb-12 22:30N 49°26' W 002°28'3 5.7
2018-Feb-12 22:00N 49°27' W 002°32'0 0.0
2018-Feb-12 21:30N 49°27' W 002°32'0 0.0
2018-Feb-12 21:00N 49°27' W 002°32'3 6.3
2018-Feb-12 20:31N 49°25' W 002°29'14 2.5
2018-Feb-12 14:55N 49°32' W 002°10'1517.0
2018-Feb-12 14:02N 49°46' W 002°01'118.1
2018-Feb-12 14:00N 49°46' W 002°01'917.5
2018-Feb-12 13:30N 49°53' W 001°53'918.1
2018-Feb-12 13:01N 50°01' W 001°45'917.7
2018-Feb-12 12:30N 50°09' W 001°39'917.9
2018-Feb-12 12:00N 50°16' W 001°31'1316.2
2018-Feb-12 11:10N 50°27' W 001°19'416.3
2018-Feb-12 10:55N 50°30' W 001°15'  

Dump ship's entire track history